Marchen Maersk — OUIY2 — position and weather

sailwx.info

Track history (hours):
 
Tides and Currents Weather Stations Pressure Air Temp Water Temp Dewpoint Dewpoint Depression Visibility Wind Speed Wind Dir Waves Ship Positions

Marchen Maersk

Last reported at 2014-Jul-29 18:33 UTC. Time now 2014-Jul-29 18:51 UTC.
Position N 53°30' E 005°06'.

Length 367 m; draft 10.8 m.

Type: Cargo ship. MMSI: 220594000.

Date/timePositionNaut miles runAvg speedWind from/ knotsBaromVisibWave heightAir tempDewpointWater temp
2014-Jul-29 18:33N 53°30' E 005°06'1919.2
2014-Jul-29 17:33N 53°20' E 004°38'2219.8
2014-Jul-29 16:26N 53°01' E 004°21'1719.5
2014-Jul-29 15:33N 52°45' E 004°07'1919.4
2014-Jul-29 14:33N 52°31' E 003°47'1918.9
2014-Jul-29 13:33N 52°17' E 003°26'1817.8
2014-Jul-29 12:33N 52°06' E 003°03'3717.3
2014-Jul-29 10:24N 51°52' E 002°06'1416.2
2014-Jul-29 09:33N 51°49' E 001°45'1212.3
2014-Jul-29 08:33N 51°56' E 001°29'7 7.4
2014-Jul-29 07:33N 51°58' E 001°17'0 0.0
2014-Jul-29 06:33N 51°58' E 001°17'0 0.0
2014-Jul-29 05:34N 51°58' E 001°17'0 0.0
2014-Jul-29 04:33N 51°58' E 001°17'0 0.0
2014-Jul-29 03:34N 51°58' E 001°17'0 0.0
2014-Jul-29 02:33N 51°58' E 001°17'0 0.0
2014-Jul-29 01:33N 51°58' E 001°17'0 0.0
2014-Jul-29 00:33N 51°58' E 001°17'0 0.0
2014-Jul-28 23:34N 51°58' E 001°17'0 0.0
2014-Jul-28 22:34N 51°58' E 001°17'0 0.0
2014-Jul-28 21:33N 51°58' E 001°17'0 0.0
2014-Jul-28 20:34N 51°58' E 001°17'0 0.0
2014-Jul-28 19:34N 51°58' E 001°17'0 0.0
2014-Jul-28 18:34N 51°58' E 001°17'0 0.0
2014-Jul-28 17:33N 51°58' E 001°17'0 0.0
2014-Jul-28 16:34N 51°58' E 001°17'0 0.0
2014-Jul-28 15:34N 51°58' E 001°17'0 0.0
2014-Jul-28 14:33N 51°58' E 001°17'0 0.0
2014-Jul-28 13:33N 51°58' E 001°17'0 0.0
2014-Jul-28 12:33N 51°58' E 001°17'0 0.0
2014-Jul-28 11:34N 51°58' E 001°17'0 0.0
2014-Jul-28 10:34N 51°58' E 001°17'0 0.0
2014-Jul-28 09:34N 51°58' E 001°17'0 0.0
2014-Jul-28 08:34N 51°58' E 001°17'0 0.0
2014-Jul-28 07:33N 51°58' E 001°17'0 0.0
2014-Jul-28 06:34N 51°58' E 001°17'0 0.0
2014-Jul-28 05:33N 51°58' E 001°17'0 0.0
2014-Jul-28 04:33N 51°58' E 001°17'0 0.0
2014-Jul-28 03:33N 51°58' E 001°17'0 0.0
2014-Jul-28 02:33N 51°58' E 001°17'0 0.0
2014-Jul-28 01:34N 51°58' E 001°17'0 0.0
2014-Jul-28 00:34N 51°58' E 001°17'0 0.0
2014-Jul-27 23:33N 51°58' E 001°17'0 0.0
2014-Jul-27 22:33N 51°58' E 001°17'1 0.7
2014-Jul-27 21:34N 51°57' E 001°18'10 9.9
2014-Jul-27 20:34N 51°55' E 001°34'6 6.3
2014-Jul-27 19:33N 51°52' E 001°42'7 7.2
2014-Jul-27 18:33N 51°46' E 001°49'1514.9
2014-Jul-27 17:34N 51°31' E 001°53'1110.7
2014-Jul-27 16:33N 51°21' E 001°59'1312.6
2014-Jul-27 15:33N 51°11' E 001°46'1313.3
2014-Jul-27 14:33N 51°01' E 001°33'1313.4
2014-Jul-27 13:34N 50°48' E 001°25'1615.3
2014-Jul-27 12:33N 50°37' E 001°09'1817.8
2014-Jul-27 11:31N 50°29' E 000°43'1818.5
2014-Jul-27 10:33N 50°24' E 000°16'4119.8
2014-Jul-27 08:29N 50°13' W 000°46'2220.6
2014-Jul-27 07:24N 50°06' W 001°19'13917.7
2014-Jul-26 23:33N 49°11' W 004°36'2416.3
2014-Jul-26 22:04N 48°59' W 005°08'816.2
2014-Jul-26 21:33N 48°55' W 005°19'3115.6
2014-Jul-26 19:33N 48°31' W 005°49'1616.4
2014-Jul-26 18:33N 48°16' W 005°59'1717.0
2014-Jul-26 17:34N 48°01' W 006°10'1817.4
2014-Jul-26 16:33N 47°46' W 006°23'1817.9
2014-Jul-26 15:34N 47°30' W 006°37'1818.1
2014-Jul-26 14:34N 47°14' W 006°49'2418.2
2014-Jul-26 13:14N 46°53' W 007°05'53316.8
2014-Jul-25 05:33N 38°12' W 009°43'1918.6
2014-Jul-25 04:33N 37°54' W 009°39'1818.3
2014-Jul-25 03:33N 37°36' W 009°33'1918.8
2014-Jul-25 02:34N 37°18' W 009°28'2218.7
2014-Jul-25 01:23N 36°57' W 009°21'1518.2
2014-Jul-25 00:33N 36°44' W 009°09'1918.9
2014-Jul-24 23:33N 36°39' W 008°47'1918.6
2014-Jul-24 22:33N 36°33' W 008°25'1818.5
2014-Jul-24 21:33N 36°28' W 008°03'2518.4
2014-Jul-24 20:12N 36°20' W 007°34'1318.4
2014-Jul-24 19:31N 36°16' W 007°19'1918.8
2014-Jul-24 18:29N 36°10' W 006°56'1818.9
2014-Jul-24 17:31N 36°04' W 006°35'26418.3
2014-Jul-24 03:06N 36°34' W 001°09'2020.8
2014-Jul-24 02:07N 36°37' W 000°44'1220.6
2014-Jul-24 01:33N 36°39' W 000°29'2120.7
2014-Jul-24 00:33N 36°42' W 000°04'2120.9
2014-Jul-23 23:33N 36°45' E 000°22'2120.8
2014-Jul-23 22:33N 36°48' E 000°48'2121.0
2014-Jul-23 21:33N 36°52' E 001°14'2120.9
2014-Jul-23 20:33N 36°54' E 001°40'2121.4
2014-Jul-23 19:33N 36°57' E 002°06'2121.3
2014-Jul-23 18:33N 37°00' E 002°32'2020.5
2014-Jul-23 17:33N 37°03' E 002°58'2120.2
2014-Jul-23 16:32N 37°07' E 003°23'2020.5
2014-Jul-23 15:33N 37°10' E 003°48'2121.1
2014-Jul-23 14:33N 37°14' E 004°14'2020.6
2014-Jul-23 13:33N 37°15' E 004°40'2121.2
2014-Jul-23 12:33N 37°18' E 005°06'2121.0
2014-Jul-23 11:33N 37°22' E 005°33'2120.8
2014-Jul-23 10:33N 37°24' E 005°58'2121.2
2014-Jul-23 09:33N 37°27' E 006°25'35519.7
2014-Jul-22 15:34N 36°40' E 013°45'2020.3
2014-Jul-22 14:33N 36°34' E 014°10'2020.1
2014-Jul-22 13:33N 36°27' E 014°33'  
Track history (hours):
 
Tides and Currents Weather Stations Pressure Air Temp Water Temp Dewpoint Dewpoint Depression Visibility Wind Speed Wind Dir Waves Ship Positions

Marchen Maersk

Last reported at 2014-Jul-29 18:33 UTC. Time now 2014-Jul-29 18:51 UTC.
Position N 53°30' E 005°06'.

Length 367 m; draft 10.8 m.

Type: Cargo ship. MMSI: 220594000.

Date/timePositionNaut miles runAvg speedWind from/ knotsBaromVisibWave heightAir tempDewpointWater temp
2014-Jul-29 18:33N 53°30' E 005°06'1919.2
2014-Jul-29 17:33N 53°20' E 004°38'2219.8
2014-Jul-29 16:26N 53°01' E 004°21'1719.5
2014-Jul-29 15:33N 52°45' E 004°07'1919.4
2014-Jul-29 14:33N 52°31' E 003°47'1918.9
2014-Jul-29 13:33N 52°17' E 003°26'1817.8
2014-Jul-29 12:33N 52°06' E 003°03'3717.3
2014-Jul-29 10:24N 51°52' E 002°06'1416.2
2014-Jul-29 09:33N 51°49' E 001°45'1212.3
2014-Jul-29 08:33N 51°56' E 001°29'7 7.4
2014-Jul-29 07:33N 51°58' E 001°17'0 0.0
2014-Jul-29 06:33N 51°58' E 001°17'0 0.0
2014-Jul-29 05:34N 51°58' E 001°17'0 0.0
2014-Jul-29 04:33N 51°58' E 001°17'0 0.0
2014-Jul-29 03:34N 51°58' E 001°17'0 0.0
2014-Jul-29 02:33N 51°58' E 001°17'0 0.0
2014-Jul-29 01:33N 51°58' E 001°17'0 0.0
2014-Jul-29 00:33N 51°58' E 001°17'0 0.0
2014-Jul-28 23:34N 51°58' E 001°17'0 0.0
2014-Jul-28 22:34N 51°58' E 001°17'0 0.0
2014-Jul-28 21:33N 51°58' E 001°17'0 0.0
2014-Jul-28 20:34N 51°58' E 001°17'0 0.0
2014-Jul-28 19:34N 51°58' E 001°17'0 0.0
2014-Jul-28 18:34N 51°58' E 001°17'0 0.0
2014-Jul-28 17:33N 51°58' E 001°17'0 0.0
2014-Jul-28 16:34N 51°58' E 001°17'0 0.0
2014-Jul-28 15:34N 51°58' E 001°17'0 0.0
2014-Jul-28 14:33N 51°58' E 001°17'0 0.0
2014-Jul-28 13:33N 51°58' E 001°17'0 0.0
2014-Jul-28 12:33N 51°58' E 001°17'0 0.0
2014-Jul-28 11:34N 51°58' E 001°17'0 0.0
2014-Jul-28 10:34N 51°58' E 001°17'0 0.0
2014-Jul-28 09:34N 51°58' E 001°17'0 0.0
2014-Jul-28 08:34N 51°58' E 001°17'0 0.0
2014-Jul-28 07:33N 51°58' E 001°17'0 0.0
2014-Jul-28 06:34N 51°58' E 001°17'0 0.0
2014-Jul-28 05:33N 51°58' E 001°17'0 0.0
2014-Jul-28 04:33N 51°58' E 001°17'0 0.0
2014-Jul-28 03:33N 51°58' E 001°17'0 0.0
2014-Jul-28 02:33N 51°58' E 001°17'0 0.0
2014-Jul-28 01:34N 51°58' E 001°17'0 0.0
2014-Jul-28 00:34N 51°58' E 001°17'0 0.0
2014-Jul-27 23:33N 51°58' E 001°17'0 0.0
2014-Jul-27 22:33N 51°58' E 001°17'1 0.7
2014-Jul-27 21:34N 51°57' E 001°18'10 9.9
2014-Jul-27 20:34N 51°55' E 001°34'6 6.3
2014-Jul-27 19:33N 51°52' E 001°42'7 7.2
2014-Jul-27 18:33N 51°46' E 001°49'1514.9
2014-Jul-27 17:34N 51°31' E 001°53'1110.7
2014-Jul-27 16:33N 51°21' E 001°59'1312.6
2014-Jul-27 15:33N 51°11' E 001°46'1313.3
2014-Jul-27 14:33N 51°01' E 001°33'1313.4
2014-Jul-27 13:34N 50°48' E 001°25'1615.3
2014-Jul-27 12:33N 50°37' E 001°09'1817.8
2014-Jul-27 11:31N 50°29' E 000°43'1818.5
2014-Jul-27 10:33N 50°24' E 000°16'4119.8
2014-Jul-27 08:29N 50°13' W 000°46'2220.6
2014-Jul-27 07:24N 50°06' W 001°19'13917.7
2014-Jul-26 23:33N 49°11' W 004°36'2416.3
2014-Jul-26 22:04N 48°59' W 005°08'816.2
2014-Jul-26 21:33N 48°55' W 005°19'3115.6
2014-Jul-26 19:33N 48°31' W 005°49'1616.4
2014-Jul-26 18:33N 48°16' W 005°59'1717.0
2014-Jul-26 17:34N 48°01' W 006°10'1817.4
2014-Jul-26 16:33N 47°46' W 006°23'1817.9
2014-Jul-26 15:34N 47°30' W 006°37'1818.1
2014-Jul-26 14:34N 47°14' W 006°49'2418.2
2014-Jul-26 13:14N 46°53' W 007°05'53316.8
2014-Jul-25 05:33N 38°12' W 009°43'1918.6
2014-Jul-25 04:33N 37°54' W 009°39'1818.3
2014-Jul-25 03:33N 37°36' W 009°33'1918.8
2014-Jul-25 02:34N 37°18' W 009°28'2218.7
2014-Jul-25 01:23N 36°57' W 009°21'1518.2
2014-Jul-25 00:33N 36°44' W 009°09'1918.9
2014-Jul-24 23:33N 36°39' W 008°47'1918.6
2014-Jul-24 22:33N 36°33' W 008°25'1818.5
2014-Jul-24 21:33N 36°28' W 008°03'2518.4
2014-Jul-24 20:12N 36°20' W 007°34'1318.4
2014-Jul-24 19:31N 36°16' W 007°19'1918.8
2014-Jul-24 18:29N 36°10' W 006°56'1818.9
2014-Jul-24 17:31N 36°04' W 006°35'26418.3
2014-Jul-24 03:06N 36°34' W 001°09'2020.8
2014-Jul-24 02:07N 36°37' W 000°44'1220.6
2014-Jul-24 01:33N 36°39' W 000°29'2120.7
2014-Jul-24 00:33N 36°42' W 000°04'2120.9
2014-Jul-23 23:33N 36°45' E 000°22'2120.8
2014-Jul-23 22:33N 36°48' E 000°48'2121.0
2014-Jul-23 21:33N 36°52' E 001°14'2120.9
2014-Jul-23 20:33N 36°54' E 001°40'2121.4
2014-Jul-23 19:33N 36°57' E 002°06'2121.3
2014-Jul-23 18:33N 37°00' E 002°32'2020.5
2014-Jul-23 17:33N 37°03' E 002°58'2120.2
2014-Jul-23 16:32N 37°07' E 003°23'2020.5
2014-Jul-23 15:33N 37°10' E 003°48'2121.1
2014-Jul-23 14:33N 37°14' E 004°14'2020.6
2014-Jul-23 13:33N 37°15' E 004°40'2121.2
2014-Jul-23 12:33N 37°18' E 005°06'2121.0
2014-Jul-23 11:33N 37°22' E 005°33'2120.8
2014-Jul-23 10:33N 37°24' E 005°58'2121.2
2014-Jul-23 09:33N 37°27' E 006°25'35519.7
2014-Jul-22 15:34N 36°40' E 013°45'2020.3
2014-Jul-22 14:33N 36°34' E 014°10'2020.1
2014-Jul-22 13:33N 36°27' E 014°33'  

Dump ship's entire track history